sensor_id;sensor_type;location;lat;lon;timestamp;P1;durP1;ratioP1;P2;durP2;ratioP2
21591;SDS011;10958;50.892;3.992;2023-11-22T00:01:11;23.02;;;14.93;;
21591;SDS011;10958;50.892;3.992;2023-11-22T00:03:37;29.58;;;15.82;;
21591;SDS011;10958;50.892;3.992;2023-11-22T00:06:03;27.98;;;15.73;;
21591;SDS011;10958;50.892;3.992;2023-11-22T00:08:32;23.70;;;14.85;;
21591;SDS011;10958;50.892;3.992;2023-11-22T00:10:58;24.15;;;14.57;;
21591;SDS011;10958;50.892;3.992;2023-11-22T00:13:24;28.20;;;15.70;;
21591;SDS011;10958;50.892;3.992;2023-11-22T00:15:49;23.13;;;14.25;;
21591;SDS011;10958;50.892;3.992;2023-11-22T00:18:15;25.02;;;15.30;;
21591;SDS011;10958;50.892;3.992;2023-11-22T00:20:41;23.10;;;15.25;;
21591;SDS011;10958;50.892;3.992;2023-11-22T00:23:07;24.52;;;14.57;;
21591;SDS011;10958;50.892;3.992;2023-11-22T00:25:33;30.88;;;16.73;;
21591;SDS011;10958;50.892;3.992;2023-11-22T00:27:59;26.90;;;15.27;;
21591;SDS011;10958;50.892;3.992;2023-11-22T00:30:25;25.45;;;15.35;;
21591;SDS011;10958;50.892;3.992;2023-11-22T00:32:51;24.25;;;15.43;;
21591;SDS011;10958;50.892;3.992;2023-11-22T00:35:17;25.50;;;15.65;;
21591;SDS011;10958;50.892;3.992;2023-11-22T00:37:42;27.83;;;16.00;;
21591;SDS011;10958;50.892;3.992;2023-11-22T00:40:08;26.48;;;15.43;;
21591;SDS011;10958;50.892;3.992;2023-11-22T00:42:38;25.10;;;15.63;;
21591;SDS011;10958;50.892;3.992;2023-11-22T00:45:06;24.90;;;15.13;;
21591;SDS011;10958;50.892;3.992;2023-11-22T00:47:33;24.80;;;14.88;;
21591;SDS011;10958;50.892;3.992;2023-11-22T00:49:59;25.77;;;15.55;;
21591;SDS011;10958;50.892;3.992;2023-11-22T00:52:26;24.45;;;14.40;;
21591;SDS011;10958;50.892;3.992;2023-11-22T00:54:52;23.30;;;14.73;;
21591;SDS011;10958;50.892;3.992;2023-11-22T00:57:18;26.45;;;15.13;;
21591;SDS011;10958;50.892;3.992;2023-11-22T00:59:43;24.95;;;14.30;;
21591;SDS011;10958;50.892;3.992;2023-11-22T01:02:09;25.98;;;15.65;;
21591;SDS011;10958;50.892;3.992;2023-11-22T01:04:35;24.13;;;14.98;;
21591;SDS011;10958;50.892;3.992;2023-11-22T01:07:02;26.73;;;15.13;;
21591;SDS011;10958;50.892;3.992;2023-11-22T01:09:30;26.70;;;15.13;;
21591;SDS011;10958;50.892;3.992;2023-11-22T01:11:57;25.27;;;15.50;;
21591;SDS011;10958;50.892;3.992;2023-11-22T01:14:22;23.75;;;14.63;;
21591;SDS011;10958;50.892;3.992;2023-11-22T01:16:49;26.15;;;15.60;;
21591;SDS011;10958;50.892;3.992;2023-11-22T01:19:15;24.55;;;14.77;;
21591;SDS011;10958;50.892;3.992;2023-11-22T01:21:43;23.63;;;14.30;;
21591;SDS011;10958;50.892;3.992;2023-11-22T01:24:09;25.80;;;14.70;;
21591;SDS011;10958;50.892;3.992;2023-11-22T01:26:35;23.65;;;14.50;;
21591;SDS011;10958;50.892;3.992;2023-11-22T01:29:00;26.45;;;15.63;;
21591;SDS011;10958;50.892;3.992;2023-11-22T01:31:30;25.80;;;15.00;;
21591;SDS011;10958;50.892;3.992;2023-11-22T01:33:56;23.08;;;13.60;;
21591;SDS011;10958;50.892;3.992;2023-11-22T01:36:21;22.40;;;14.18;;
21591;SDS011;10958;50.892;3.992;2023-11-22T01:38:47;28.60;;;15.77;;
21591;SDS011;10958;50.892;3.992;2023-11-22T01:41:14;25.27;;;14.23;;
21591;SDS011;10958;50.892;3.992;2023-11-22T01:43:40;28.55;;;15.43;;
21591;SDS011;10958;50.892;3.992;2023-11-22T01:46:08;27.67;;;15.23;;
21591;SDS011;10958;50.892;3.992;2023-11-22T01:48:42;24.70;;;15.00;;
21591;SDS011;10958;50.892;3.992;2023-11-22T01:51:08;24.27;;;14.23;;
21591;SDS011;10958;50.892;3.992;2023-11-22T01:53:33;28.33;;;15.07;;
21591;SDS011;10958;50.892;3.992;2023-11-22T01:56:00;28.48;;;15.45;;
21591;SDS011;10958;50.892;3.992;2023-11-22T01:58:27;25.92;;;14.30;;
21591;SDS011;10958;50.892;3.992;2023-11-22T02:00:53;27.83;;;14.68;;
21591;SDS011;10958;50.892;3.992;2023-11-22T02:03:21;22.55;;;13.48;;
21591;SDS011;10958;50.892;3.992;2023-11-22T02:05:47;26.85;;;15.15;;
21591;SDS011;10958;50.892;3.992;2023-11-22T02:08:13;25.00;;;15.10;;
21591;SDS011;10958;50.892;3.992;2023-11-22T02:10:39;25.95;;;13.43;;
21591;SDS011;10958;50.892;3.992;2023-11-22T02:13:09;24.35;;;14.35;;
21591;SDS011;10958;50.892;3.992;2023-11-22T02:15:35;27.15;;;14.65;;
21591;SDS011;10958;50.892;3.992;2023-11-22T02:18:01;27.55;;;14.40;;
21591;SDS011;10958;50.892;3.992;2023-11-22T02:20:30;25.48;;;14.68;;
21591;SDS011;10958;50.892;3.992;2023-11-22T02:22:55;24.23;;;13.93;;
21591;SDS011;10958;50.892;3.992;2023-11-22T02:25:22;28.52;;;15.27;;
21591;SDS011;10958;50.892;3.992;2023-11-22T02:27:48;29.48;;;15.82;;
21591;SDS011;10958;50.892;3.992;2023-11-22T02:30:16;27.45;;;15.02;;
21591;SDS011;10958;50.892;3.992;2023-11-22T02:32:42;24.17;;;13.80;;
21591;SDS011;10958;50.892;3.992;2023-11-22T02:35:12;26.63;;;14.73;;
21591;SDS011;10958;50.892;3.992;2023-11-22T02:37:38;24.40;;;15.30;;
21591;SDS011;10958;50.892;3.992;2023-11-22T02:42:45;27.90;;;14.50;;
21591;SDS011;10958;50.892;3.992;2023-11-22T02:45:15;26.40;;;13.77;;
21591;SDS011;10958;50.892;3.992;2023-11-22T02:47:41;26.33;;;14.48;;
21591;SDS011;10958;50.892;3.992;2023-11-22T02:50:09;24.83;;;14.32;;
21591;SDS011;10958;50.892;3.992;2023-11-22T02:52:36;26.23;;;14.48;;
21591;SDS011;10958;50.892;3.992;2023-11-22T02:55:04;20.03;;;11.00;;
21591;SDS011;10958;50.892;3.992;2023-11-22T02:57:31;25.52;;;14.35;;
21591;SDS011;10958;50.892;3.992;2023-11-22T02:59:57;28.45;;;14.23;;
21591;SDS011;10958;50.892;3.992;2023-11-22T03:02:23;28.88;;;14.43;;
21591;SDS011;10958;50.892;3.992;2023-11-22T03:04:49;25.25;;;13.60;;
21591;SDS011;10958;50.892;3.992;2023-11-22T03:07:15;27.70;;;14.13;;
21591;SDS011;10958;50.892;3.992;2023-11-22T03:09:41;27.08;;;14.73;;
21591;SDS011;10958;50.892;3.992;2023-11-22T03:12:09;33.47;;;14.93;;
21591;SDS011;10958;50.892;3.992;2023-11-22T03:14:35;27.95;;;14.82;;
21591;SDS011;10958;50.892;3.992;2023-11-22T03:17:01;26.65;;;14.90;;
21591;SDS011;10958;50.892;3.992;2023-11-22T03:19:30;26.48;;;14.38;;
21591;SDS011;10958;50.892;3.992;2023-11-22T03:21:58;26.63;;;13.95;;
21591;SDS011;10958;50.892;3.992;2023-11-22T03:24:25;24.98;;;13.50;;
21591;SDS011;10958;50.892;3.992;2023-11-22T03:26:50;23.80;;;13.68;;
21591;SDS011;10958;50.892;3.992;2023-11-22T03:29:17;24.98;;;13.05;;
21591;SDS011;10958;50.892;3.992;2023-11-22T03:31:43;27.70;;;14.80;;
21591;SDS011;10958;50.892;3.992;2023-11-22T03:34:12;27.45;;;15.05;;
21591;SDS011;10958;50.892;3.992;2023-11-22T03:36:40;27.30;;;15.65;;
21591;SDS011;10958;50.892;3.992;2023-11-22T03:39:05;28.58;;;16.05;;
21591;SDS011;10958;50.892;3.992;2023-11-22T03:41:31;29.30;;;16.23;;
21591;SDS011;10958;50.892;3.992;2023-11-22T03:43:57;29.90;;;16.10;;
21591;SDS011;10958;50.892;3.992;2023-11-22T03:46:22;30.95;;;15.63;;
21591;SDS011;10958;50.892;3.992;2023-11-22T03:48:48;28.90;;;16.75;;
21591;SDS011;10958;50.892;3.992;2023-11-22T03:51:14;27.08;;;15.27;;
21591;SDS011;10958;50.892;3.992;2023-11-22T03:53:40;28.33;;;15.35;;
21591;SDS011;10958;50.892;3.992;2023-11-22T03:56:07;28.13;;;15.60;;
21591;SDS011;10958;50.892;3.992;2023-11-22T03:58:33;30.63;;;16.30;;
21591;SDS011;10958;50.892;3.992;2023-11-22T04:00:58;32.10;;;16.80;;
21591;SDS011;10958;50.892;3.992;2023-11-22T04:03:27;30.20;;;16.00;;
21591;SDS011;10958;50.892;3.992;2023-11-22T04:05:53;29.67;;;15.85;;
21591;SDS011;10958;50.892;3.992;2023-11-22T04:08:19;27.63;;;16.48;;
21591;SDS011;10958;50.892;3.992;2023-11-22T04:10:45;29.35;;;14.82;;
21591;SDS011;10958;50.892;3.992;2023-11-22T04:13:10;29.27;;;16.48;;
21591;SDS011;10958;50.892;3.992;2023-11-22T04:15:37;33.30;;;17.40;;
21591;SDS011;10958;50.892;3.992;2023-11-22T04:18:02;30.90;;;16.20;;
21591;SDS011;10958;50.892;3.992;2023-11-22T04:20:29;28.30;;;15.90;;
21591;SDS011;10958;50.892;3.992;2023-11-22T04:22:54;27.73;;;16.17;;
21591;SDS011;10958;50.892;3.992;2023-11-22T04:25:20;27.20;;;15.80;;
21591;SDS011;10958;50.892;3.992;2023-11-22T04:27:46;29.60;;;15.75;;
21591;SDS011;10958;50.892;3.992;2023-11-22T04:30:12;32.10;;;16.17;;
21591;SDS011;10958;50.892;3.992;2023-11-22T04:32:39;25.60;;;15.10;;
21591;SDS011;10958;50.892;3.992;2023-11-22T04:35:09;32.38;;;16.52;;
21591;SDS011;10958;50.892;3.992;2023-11-22T04:37:35;28.98;;;16.33;;
21591;SDS011;10958;50.892;3.992;2023-11-22T04:40:01;36.58;;;17.50;;
21591;SDS011;10958;50.892;3.992;2023-11-22T04:42:29;27.42;;;16.20;;
21591;SDS011;10958;50.892;3.992;2023-11-22T04:44:54;28.70;;;16.20;;
21591;SDS011;10958;50.892;3.992;2023-11-22T04:47:20;28.98;;;15.43;;
21591;SDS011;10958;50.892;3.992;2023-11-22T04:49:47;30.05;;;15.20;;
21591;SDS011;10958;50.892;3.992;2023-11-22T04:52:13;27.17;;;15.70;;
21591;SDS011;10958;50.892;3.992;2023-11-22T04:54:39;24.23;;;14.65;;
21591;SDS011;10958;50.892;3.992;2023-11-22T04:57:10;20.33;;;11.47;;
21591;SDS011;10958;50.892;3.992;2023-11-22T04:59:36;23.10;;;11.47;;
21591;SDS011;10958;50.892;3.992;2023-11-22T05:02:03;26.20;;;14.75;;
21591;SDS011;10958;50.892;3.992;2023-11-22T05:04:29;25.40;;;14.38;;
21591;SDS011;10958;50.892;3.992;2023-11-22T05:06:55;26.38;;;14.50;;
21591;SDS011;10958;50.892;3.992;2023-11-22T05:09:21;23.83;;;13.75;;
21591;SDS011;10958;50.892;3.992;2023-11-22T05:11:47;24.67;;;14.05;;
21591;SDS011;10958;50.892;3.992;2023-11-22T05:14:12;25.33;;;13.73;;
21591;SDS011;10958;50.892;3.992;2023-11-22T05:16:38;24.80;;;14.65;;
21591;SDS011;10958;50.892;3.992;2023-11-22T05:19:04;24.55;;;14.35;;
21591;SDS011;10958;50.892;3.992;2023-11-22T05:21:30;26.33;;;14.43;;
21591;SDS011;10958;50.892;3.992;2023-11-22T05:23:57;25.73;;;14.23;;
21591;SDS011;10958;50.892;3.992;2023-11-22T05:26:23;26.33;;;14.60;;
21591;SDS011;10958;50.892;3.992;2023-11-22T05:28:48;22.23;;;13.40;;
21591;SDS011;10958;50.892;3.992;2023-11-22T05:31:14;25.33;;;14.35;;
21591;SDS011;10958;50.892;3.992;2023-11-22T05:33:40;28.27;;;13.45;;
21591;SDS011;10958;50.892;3.992;2023-11-22T05:36:08;26.63;;;14.02;;
21591;SDS011;10958;50.892;3.992;2023-11-22T05:38:35;24.65;;;14.73;;
21591;SDS011;10958;50.892;3.992;2023-11-22T05:41:02;27.92;;;14.38;;
21591;SDS011;10958;50.892;3.992;2023-11-22T05:43:28;26.58;;;15.00;;
21591;SDS011;10958;50.892;3.992;2023-11-22T05:45:53;26.52;;;14.35;;
21591;SDS011;10958;50.892;3.992;2023-11-22T05:48:19;24.48;;;15.00;;
21591;SDS011;10958;50.892;3.992;2023-11-22T05:50:45;26.15;;;16.05;;
21591;SDS011;10958;50.892;3.992;2023-11-22T05:53:11;25.45;;;15.50;;
21591;SDS011;10958;50.892;3.992;2023-11-22T05:55:44;25.20;;;14.85;;
21591;SDS011;10958;50.892;3.992;2023-11-22T05:58:13;24.40;;;14.27;;
21591;SDS011;10958;50.892;3.992;2023-11-22T06:00:42;33.35;;;15.77;;
21591;SDS011;10958;50.892;3.992;2023-11-22T06:03:11;26.75;;;15.10;;
21591;SDS011;10958;50.892;3.992;2023-11-22T06:05:38;24.77;;;14.80;;
21591;SDS011;10958;50.892;3.992;2023-11-22T06:08:04;33.17;;;15.93;;
21591;SDS011;10958;50.892;3.992;2023-11-22T06:10:30;25.58;;;14.82;;
21591;SDS011;10958;50.892;3.992;2023-11-22T06:12:56;30.38;;;16.05;;
21591;SDS011;10958;50.892;3.992;2023-11-22T06:15:22;27.88;;;15.68;;
21591;SDS011;10958;50.892;3.992;2023-11-22T06:17:50;28.45;;;16.08;;
21591;SDS011;10958;50.892;3.992;2023-11-22T06:20:16;28.73;;;16.50;;
21591;SDS011;10958;50.892;3.992;2023-11-22T06:22:42;30.48;;;16.15;;
21591;SDS011;10958;50.892;3.992;2023-11-22T06:25:09;30.40;;;17.02;;
21591;SDS011;10958;50.892;3.992;2023-11-22T06:27:38;35.58;;;17.27;;
21591;SDS011;10958;50.892;3.992;2023-11-22T06:30:05;32.95;;;17.05;;
21591;SDS011;10958;50.892;3.992;2023-11-22T06:32:31;30.45;;;17.02;;
21591;SDS011;10958;50.892;3.992;2023-11-22T06:35:00;34.90;;;17.73;;
21591;SDS011;10958;50.892;3.992;2023-11-22T06:37:26;36.38;;;17.52;;
21591;SDS011;10958;50.892;3.992;2023-11-22T06:39:52;35.25;;;18.08;;
21591;SDS011;10958;50.892;3.992;2023-11-22T06:42:18;34.78;;;17.15;;
21591;SDS011;10958;50.892;3.992;2023-11-22T06:47:13;34.35;;;17.30;;
21591;SDS011;10958;50.892;3.992;2023-11-22T06:49:39;32.17;;;16.80;;
21591;SDS011;10958;50.892;3.992;2023-11-22T06:52:04;32.80;;;17.52;;
21591;SDS011;10958;50.892;3.992;2023-11-22T06:54:30;35.67;;;18.52;;
21591;SDS011;10958;50.892;3.992;2023-11-22T06:56:58;36.40;;;16.98;;
21591;SDS011;10958;50.892;3.992;2023-11-22T06:59:24;34.05;;;18.17;;
21591;SDS011;10958;50.892;3.992;2023-11-22T07:01:50;35.97;;;18.08;;
21591;SDS011;10958;50.892;3.992;2023-11-22T07:04:15;32.75;;;17.65;;
21591;SDS011;10958;50.892;3.992;2023-11-22T07:06:41;29.75;;;16.67;;
21591;SDS011;10958;50.892;3.992;2023-11-22T07:09:09;30.42;;;16.55;;
21591;SDS011;10958;50.892;3.992;2023-11-22T07:11:35;39.90;;;18.98;;
21591;SDS011;10958;50.892;3.992;2023-11-22T07:14:02;33.65;;;19.00;;
21591;SDS011;10958;50.892;3.992;2023-11-22T07:16:29;47.13;;;21.65;;
21591;SDS011;10958;50.892;3.992;2023-11-22T07:18:56;41.00;;;19.90;;
21591;SDS011;10958;50.892;3.992;2023-11-22T07:21:22;41.08;;;21.65;;
21591;SDS011;10958;50.892;3.992;2023-11-22T07:23:48;42.20;;;21.73;;
21591;SDS011;10958;50.892;3.992;2023-11-22T07:26:14;44.30;;;22.42;;
21591;SDS011;10958;50.892;3.992;2023-11-22T07:28:40;46.08;;;20.67;;
21591;SDS011;10958;50.892;3.992;2023-11-22T07:31:09;44.22;;;21.90;;
21591;SDS011;10958;50.892;3.992;2023-11-22T07:33:36;46.58;;;21.05;;
21591;SDS011;10958;50.892;3.992;2023-11-22T07:36:03;46.10;;;22.42;;
21591;SDS011;10958;50.892;3.992;2023-11-22T07:38:30;51.15;;;23.73;;
21591;SDS011;10958;50.892;3.992;2023-11-22T07:40:57;45.15;;;23.67;;
21591;SDS011;10958;50.892;3.992;2023-11-22T07:43:26;49.50;;;22.30;;
21591;SDS011;10958;50.892;3.992;2023-11-22T07:45:52;47.95;;;23.05;;
21591;SDS011;10958;50.892;3.992;2023-11-22T07:48:18;47.30;;;23.90;;
21591;SDS011;10958;50.892;3.992;2023-11-22T07:50:44;46.40;;;22.67;;
21591;SDS011;10958;50.892;3.992;2023-11-22T07:53:14;48.85;;;24.05;;
21591;SDS011;10958;50.892;3.992;2023-11-22T07:55:39;52.33;;;23.85;;
21591;SDS011;10958;50.892;3.992;2023-11-22T07:58:07;47.03;;;22.70;;
21591;SDS011;10958;50.892;3.992;2023-11-22T08:00:34;53.00;;;23.42;;
21591;SDS011;10958;50.892;3.992;2023-11-22T08:03:00;48.05;;;23.67;;
21591;SDS011;10958;50.892;3.992;2023-11-22T08:05:29;49.95;;;23.25;;
21591;SDS011;10958;50.892;3.992;2023-11-22T08:08:00;52.25;;;23.30;;
21591;SDS011;10958;50.892;3.992;2023-11-22T08:10:31;47.50;;;22.70;;
21591;SDS011;10958;50.892;3.992;2023-11-22T08:12:57;52.03;;;24.15;;
21591;SDS011;10958;50.892;3.992;2023-11-22T08:15:23;48.60;;;23.75;;
21591;SDS011;10958;50.892;3.992;2023-11-22T08:17:49;54.05;;;23.80;;
21591;SDS011;10958;50.892;3.992;2023-11-22T08:20:14;52.50;;;24.55;;
21591;SDS011;10958;50.892;3.992;2023-11-22T08:22:43;51.92;;;24.30;;
21591;SDS011;10958;50.892;3.992;2023-11-22T08:25:10;49.75;;;24.88;;
21591;SDS011;10958;50.892;3.992;2023-11-22T08:27:40;47.42;;;22.58;;
21591;SDS011;10958;50.892;3.992;2023-11-22T08:30:07;46.05;;;22.15;;
21591;SDS011;10958;50.892;3.992;2023-11-22T08:32:38;44.80;;;23.33;;
21591;SDS011;10958;50.892;3.992;2023-11-22T08:35:06;47.90;;;23.67;;
21591;SDS011;10958;50.892;3.992;2023-11-22T08:37:33;48.22;;;24.08;;
21591;SDS011;10958;50.892;3.992;2023-11-22T08:42:29;46.65;;;22.13;;
21591;SDS011;10958;50.892;3.992;2023-11-22T08:44:55;50.40;;;24.70;;
21591;SDS011;10958;50.892;3.992;2023-11-22T08:47:21;51.80;;;24.00;;
21591;SDS011;10958;50.892;3.992;2023-11-22T08:49:47;51.97;;;24.65;;
21591;SDS011;10958;50.892;3.992;2023-11-22T08:52:13;52.90;;;24.85;;
21591;SDS011;10958;50.892;3.992;2023-11-22T08:54:39;47.97;;;24.02;;
21591;SDS011;10958;50.892;3.992;2023-11-22T08:57:06;47.97;;;23.40;;
21591;SDS011;10958;50.892;3.992;2023-11-22T08:59:32;43.13;;;21.55;;
21591;SDS011;10958;50.892;3.992;2023-11-22T09:02:03;43.80;;;22.25;;
21591;SDS011;10958;50.892;3.992;2023-11-22T09:04:29;37.45;;;20.42;;
21591;SDS011;10958;50.892;3.992;2023-11-22T09:06:57;40.78;;;21.15;;
21591;SDS011;10958;50.892;3.992;2023-11-22T09:09:23;41.83;;;21.45;;
21591;SDS011;10958;50.892;3.992;2023-11-22T09:11:56;49.33;;;22.42;;
21591;SDS011;10958;50.892;3.992;2023-11-22T09:14:23;45.42;;;21.73;;
21591;SDS011;10958;50.892;3.992;2023-11-22T09:16:52;45.33;;;21.92;;
21591;SDS011;10958;50.892;3.992;2023-11-22T09:19:22;40.72;;;21.25;;
21591;SDS011;10958;50.892;3.992;2023-11-22T09:21:49;38.72;;;20.95;;
21591;SDS011;10958;50.892;3.992;2023-11-22T09:24:15;40.63;;;21.63;;
21591;SDS011;10958;50.892;3.992;2023-11-22T09:26:41;42.78;;;21.70;;
21591;SDS011;10958;50.892;3.992;2023-11-22T09:29:08;42.30;;;21.80;;
21591;SDS011;10958;50.892;3.992;2023-11-22T09:31:38;47.78;;;22.35;;
21591;SDS011;10958;50.892;3.992;2023-11-22T09:34:05;48.25;;;22.48;;
21591;SDS011;10958;50.892;3.992;2023-11-22T09:36:33;45.08;;;23.20;;
21591;SDS011;10958;50.892;3.992;2023-11-22T09:38:59;41.93;;;21.17;;
21591;SDS011;10958;50.892;3.992;2023-11-22T09:41:25;44.45;;;21.17;;
21591;SDS011;10958;50.892;3.992;2023-11-22T09:43:58;41.78;;;21.63;;
21591;SDS011;10958;50.892;3.992;2023-11-22T09:46:26;45.45;;;22.30;;
21591;SDS011;10958;50.892;3.992;2023-11-22T09:48:56;46.17;;;21.90;;
21591;SDS011;10958;50.892;3.992;2023-11-22T09:51:23;43.08;;;22.58;;
21591;SDS011;10958;50.892;3.992;2023-11-22T09:53:58;40.28;;;21.60;;
21591;SDS011;10958;50.892;3.992;2023-11-22T09:56:30;42.92;;;22.73;;
21591;SDS011;10958;50.892;3.992;2023-11-22T09:58:58;40.90;;;20.85;;
21591;SDS011;10958;50.892;3.992;2023-11-22T10:01:28;47.17;;;23.83;;
21591;SDS011;10958;50.892;3.992;2023-11-22T10:03:56;44.38;;;22.25;;
21591;SDS011;10958;50.892;3.992;2023-11-22T10:06:23;50.45;;;23.90;;
21591;SDS011;10958;50.892;3.992;2023-11-22T10:08:49;44.83;;;22.48;;
21591;SDS011;10958;50.892;3.992;2023-11-22T10:11:18;50.67;;;23.85;;
21591;SDS011;10958;50.892;3.992;2023-11-22T10:13:51;46.80;;;23.13;;
21591;SDS011;10958;50.892;3.992;2023-11-22T10:16:17;44.88;;;22.77;;
21591;SDS011;10958;50.892;3.992;2023-11-22T10:18:45;47.17;;;22.85;;
21591;SDS011;10958;50.892;3.992;2023-11-22T10:21:18;39.67;;;20.60;;
21591;SDS011;10958;50.892;3.992;2023-11-22T10:23:49;43.80;;;20.70;;
21591;SDS011;10958;50.892;3.992;2023-11-22T10:26:17;42.65;;;21.02;;
21591;SDS011;10958;50.892;3.992;2023-11-22T10:28:43;40.58;;;20.40;;
21591;SDS011;10958;50.892;3.992;2023-11-22T10:31:09;40.45;;;21.08;;
21591;SDS011;10958;50.892;3.992;2023-11-22T10:33:39;39.50;;;21.40;;
21591;SDS011;10958;50.892;3.992;2023-11-22T10:36:07;39.78;;;21.40;;
21591;SDS011;10958;50.892;3.992;2023-11-22T10:38:37;43.05;;;21.10;;
21591;SDS011;10958;50.892;3.992;2023-11-22T10:41:09;38.92;;;20.95;;
21591;SDS011;10958;50.892;3.992;2023-11-22T10:43:35;39.55;;;20.60;;
21591;SDS011;10958;50.892;3.992;2023-11-22T10:46:02;35.83;;;19.70;;
21591;SDS011;10958;50.892;3.992;2023-11-22T10:51:01;34.47;;;18.10;;
21591;SDS011;10958;50.892;3.992;2023-11-22T10:53:32;36.57;;;18.87;;
21591;SDS011;10958;50.892;3.992;2023-11-22T10:56:04;36.30;;;18.50;;
21591;SDS011;10958;50.892;3.992;2023-11-22T11:03:36;33.70;;;17.17;;
21591;SDS011;10958;50.892;3.992;2023-11-22T11:06:07;30.33;;;17.05;;
21591;SDS011;10958;50.892;3.992;2023-11-22T11:08:41;32.88;;;17.65;;
21591;SDS011;10958;50.892;3.992;2023-11-22T11:11:09;34.75;;;17.85;;
21591;SDS011;10958;50.892;3.992;2023-11-22T11:13:34;32.28;;;16.55;;
21591;SDS011;10958;50.892;3.992;2023-11-22T11:16:04;32.38;;;17.40;;
21591;SDS011;10958;50.892;3.992;2023-11-22T11:18:30;31.92;;;17.70;;
21591;SDS011;10958;50.892;3.992;2023-11-22T11:20:58;28.33;;;16.52;;
21591;SDS011;10958;50.892;3.992;2023-11-22T11:23:25;31.90;;;17.67;;
21591;SDS011;10958;50.892;3.992;2023-11-22T11:25:58;32.33;;;16.92;;
21591;SDS011;10958;50.892;3.992;2023-11-22T11:28:42;30.40;;;16.52;;
21591;SDS011;10958;50.892;3.992;2023-11-22T11:31:20;24.65;;;13.80;;
21591;SDS011;10958;50.892;3.992;2023-11-22T11:36:15;25.85;;;15.75;;
21591;SDS011;10958;50.892;3.992;2023-11-22T11:38:59;27.50;;;15.95;;
21591;SDS011;10958;50.892;3.992;2023-11-22T11:41:40;26.42;;;15.23;;
21591;SDS011;10958;50.892;3.992;2023-11-22T11:44:07;28.20;;;16.27;;
21591;SDS011;10958;50.892;3.992;2023-11-22T11:46:37;33.63;;;17.73;;
21591;SDS011;10958;50.892;3.992;2023-11-22T11:49:06;28.05;;;15.98;;
21591;SDS011;10958;50.892;3.992;2023-11-22T11:51:39;38.00;;;18.88;;
21591;SDS011;10958;50.892;3.992;2023-11-22T11:54:05;30.10;;;16.15;;
21591;SDS011;10958;50.892;3.992;2023-11-22T11:56:31;32.45;;;17.27;;
21591;SDS011;10958;50.892;3.992;2023-11-22T11:58:58;32.83;;;18.17;;
21591;SDS011;10958;50.892;3.992;2023-11-22T12:01:27;28.65;;;16.15;;
21591;SDS011;10958;50.892;3.992;2023-11-22T12:03:57;28.25;;;15.80;;
21591;SDS011;10958;50.892;3.992;2023-11-22T12:06:25;27.77;;;16.73;;
21591;SDS011;10958;50.892;3.992;2023-11-22T12:08:51;27.13;;;15.65;;
21591;SDS011;10958;50.892;3.992;2023-11-22T12:11:18;28.35;;;15.98;;
21591;SDS011;10958;50.892;3.992;2023-11-22T12:13:44;25.17;;;15.32;;
21591;SDS011;10958;50.892;3.992;2023-11-22T12:16:15;26.02;;;15.98;;
21591;SDS011;10958;50.892;3.992;2023-11-22T12:18:48;25.33;;;15.02;;
21591;SDS011;10958;50.892;3.992;2023-11-22T12:21:17;29.25;;;15.45;;
21591;SDS011;10958;50.892;3.992;2023-11-22T12:23:44;26.42;;;16.00;;
21591;SDS011;10958;50.892;3.992;2023-11-22T12:26:14;25.80;;;16.10;;
21591;SDS011;10958;50.892;3.992;2023-11-22T12:28:47;27.38;;;15.35;;
21591;SDS011;10958;50.892;3.992;2023-11-22T12:31:14;27.67;;;14.05;;
21591;SDS011;10958;50.892;3.992;2023-11-22T12:33:40;30.85;;;15.32;;
21591;SDS011;10958;50.892;3.992;2023-11-22T12:36:08;29.27;;;16.17;;
21591;SDS011;10958;50.892;3.992;2023-11-22T12:38:36;27.75;;;16.08;;
21591;SDS011;10958;50.892;3.992;2023-11-22T12:41:02;25.55;;;15.60;;
21591;SDS011;10958;50.892;3.992;2023-11-22T12:43:31;26.25;;;15.82;;
21591;SDS011;10958;50.892;3.992;2023-11-22T12:46:04;28.85;;;16.65;;
21591;SDS011;10958;50.892;3.992;2023-11-22T12:48:38;29.40;;;17.10;;
21591;SDS011;10958;50.892;3.992;2023-11-22T12:51:14;29.30;;;16.53;;
21591;SDS011;10958;50.892;3.992;2023-11-22T12:53:46;31.83;;;16.20;;
21591;SDS011;10958;50.892;3.992;2023-11-22T12:56:15;28.00;;;16.90;;
21591;SDS011;10958;50.892;3.992;2023-11-22T12:58:41;33.65;;;19.00;;
21591;SDS011;10958;50.892;3.992;2023-11-22T13:01:09;27.55;;;16.15;;
21591;SDS011;10958;50.892;3.992;2023-11-22T13:03:36;27.65;;;15.88;;
21591;SDS011;10958;50.892;3.992;2023-11-22T13:06:08;26.58;;;15.98;;
21591;SDS011;10958;50.892;3.992;2023-11-22T13:08:33;29.40;;;16.05;;
21591;SDS011;10958;50.892;3.992;2023-11-22T13:11:00;30.88;;;16.58;;
21591;SDS011;10958;50.892;3.992;2023-11-22T13:13:26;28.92;;;15.75;;
21591;SDS011;10958;50.892;3.992;2023-11-22T13:15:53;28.27;;;16.25;;
21591;SDS011;10958;50.892;3.992;2023-11-22T13:18:19;25.85;;;15.20;;
21591;SDS011;10958;50.892;3.992;2023-11-22T13:20:46;27.35;;;15.43;;
21591;SDS011;10958;50.892;3.992;2023-11-22T13:23:12;27.30;;;15.90;;
21591;SDS011;10958;50.892;3.992;2023-11-22T13:25:43;26.55;;;15.50;;
21591;SDS011;10958;50.892;3.992;2023-11-22T13:28:11;29.05;;;16.08;;
21591;SDS011;10958;50.892;3.992;2023-11-22T13:30:38;31.05;;;15.95;;
21591;SDS011;10958;50.892;3.992;2023-11-22T13:33:08;27.90;;;16.35;;
21591;SDS011;10958;50.892;3.992;2023-11-22T13:35:37;29.67;;;14.93;;
21591;SDS011;10958;50.892;3.992;2023-11-22T13:38:03;24.50;;;12.13;;
21591;SDS011;10958;50.892;3.992;2023-11-22T13:40:35;28.23;;;16.33;;
21591;SDS011;10958;50.892;3.992;2023-11-22T13:43:04;26.38;;;15.23;;
21591;SDS011;10958;50.892;3.992;2023-11-22T13:45:30;26.80;;;16.98;;
21591;SDS011;10958;50.892;3.992;2023-11-22T13:47:56;25.83;;;15.40;;
21591;SDS011;10958;50.892;3.992;2023-11-22T13:50:32;24.45;;;15.20;;
21591;SDS011;10958;50.892;3.992;2023-11-22T13:52:58;28.55;;;16.35;;
21591;SDS011;10958;50.892;3.992;2023-11-22T13:55:24;27.92;;;14.98;;
21591;SDS011;10958;50.892;3.992;2023-11-22T13:57:53;29.92;;;16.50;;
21591;SDS011;10958;50.892;3.992;2023-11-22T14:00:22;29.87;;;16.40;;
21591;SDS011;10958;50.892;3.992;2023-11-22T14:02:49;26.25;;;15.98;;
21591;SDS011;10958;50.892;3.992;2023-11-22T14:05:26;28.15;;;16.30;;
21591;SDS011;10958;50.892;3.992;2023-11-22T14:07:53;28.77;;;16.85;;
21591;SDS011;10958;50.892;3.992;2023-11-22T14:10:20;32.90;;;15.50;;
21591;SDS011;10958;50.892;3.992;2023-11-22T14:12:47;27.63;;;15.75;;
21591;SDS011;10958;50.892;3.992;2023-11-22T14:15:13;26.88;;;15.30;;
21591;SDS011;10958;50.892;3.992;2023-11-22T14:17:39;26.98;;;16.20;;
21591;SDS011;10958;50.892;3.992;2023-11-22T14:20:09;29.40;;;15.75;;
21591;SDS011;10958;50.892;3.992;2023-11-22T14:22:38;29.02;;;16.45;;
21591;SDS011;10958;50.892;3.992;2023-11-22T14:25:07;27.13;;;16.10;;
21591;SDS011;10958;50.892;3.992;2023-11-22T14:27:44;27.15;;;15.90;;
21591;SDS011;10958;50.892;3.992;2023-11-22T14:30:11;26.65;;;16.00;;
21591;SDS011;10958;50.892;3.992;2023-11-22T14:32:42;30.45;;;15.68;;
21591;SDS011;10958;50.892;3.992;2023-11-22T14:35:08;27.80;;;15.90;;
21591;SDS011;10958;50.892;3.992;2023-11-22T14:37:37;28.20;;;15.38;;
21591;SDS011;10958;50.892;3.992;2023-11-22T14:40:06;29.58;;;16.67;;